createdAt,value
2019-04-29T00:05:57.625Z,9.20
2019-04-29T00:16:21.236Z,9.30
2019-04-29T00:26:27.554Z,9.10
2019-04-29T00:36:37.742Z,9.20
2019-04-29T00:46:43.397Z,9.20
2019-04-29T00:56:49.017Z,9.10
2019-04-29T01:06:54.756Z,9.00
2019-04-29T01:17:00.356Z,9.00
2019-04-29T01:27:10.698Z,8.90
2019-04-29T01:48:27.636Z,9.00
2019-04-29T01:58:33.231Z,8.90
2019-04-29T02:08:40.030Z,8.90
2019-04-29T02:18:45.562Z,8.90
2019-04-29T02:28:51.156Z,8.80
2019-04-29T02:39:04.357Z,8.80
2019-04-29T02:49:10.639Z,8.90
2019-04-29T02:59:34.324Z,8.80
2019-04-29T03:09:46.121Z,8.90
2019-04-29T03:20:10.145Z,8.90
2019-04-29T03:30:15.861Z,8.80
2019-04-29T03:40:21.660Z,8.80
2019-04-29T03:50:27.278Z,8.90
2019-04-29T04:00:32.965Z,8.80
2019-04-29T04:10:38.518Z,8.80
2019-04-29T04:20:44.129Z,8.80
2019-04-29T04:30:49.728Z,8.90
2019-04-29T04:40:56.926Z,9.00
2019-04-29T04:51:02.556Z,8.90
2019-04-29T05:01:08.237Z,9.00
2019-04-29T05:11:13.876Z,9.00
2019-04-29T05:21:19.435Z,9.20
2019-04-29T05:31:25.066Z,9.30
2019-04-29T05:41:34.912Z,9.30
2019-04-29T05:51:39.330Z,9.40
2019-04-29T06:01:47.346Z,9.50
2019-04-29T06:11:52.238Z,9.70
2019-04-29T06:21:57.876Z,9.70
2019-04-29T06:32:03.462Z,9.70
2019-04-29T06:42:09.004Z,9.70
2019-04-29T06:52:14.533Z,9.90
2019-04-29T07:02:20.020Z,9.90
2019-04-29T07:12:25.597Z,9.90
2019-04-29T07:22:31.297Z,10.10
2019-04-29T07:32:36.970Z,10.20
2019-04-29T07:42:42.597Z,10.40
2019-04-29T07:52:50.010Z,10.60
2019-04-29T08:02:55.316Z,10.70
2019-04-29T08:13:01.080Z,10.70
2019-04-29T08:23:06.703Z,11.00
2019-04-29T08:33:13.207Z,11.00
2019-04-29T08:43:36.871Z,11.00
2019-04-29T08:53:42.509Z,11.20
2019-04-29T09:03:48.157Z,11.30
2019-04-29T09:13:53.796Z,11.40
2019-04-29T09:23:59.413Z,11.50
2019-04-29T09:34:06.870Z,11.30
2019-04-29T09:44:35.307Z,11.60
2019-04-29T09:54:38.926Z,11.50
2019-04-29T10:14:53.789Z,11.60
2019-04-29T10:24:59.517Z,11.50
2019-04-29T10:35:10.743Z,11.60
2019-04-29T10:45:28.823Z,11.70
2019-04-29T10:55:35.720Z,11.90
2019-04-29T11:05:59.962Z,11.90
2019-04-29T11:15:51.382Z,11.80
2019-04-29T11:26:04.303Z,11.80
2019-04-29T11:36:11.542Z,11.80
2019-04-29T11:46:17.236Z,11.90
2019-04-29T11:56:23.141Z,12.00
2019-04-29T12:06:30.151Z,12.20
2019-04-29T12:16:38.844Z,12.30
2019-04-29T12:26:44.600Z,12.50
2019-04-29T12:36:56.256Z,12.40
2019-04-29T12:47:08.316Z,12.30
2019-04-29T12:57:14.102Z,12.10
2019-04-29T13:07:27.108Z,12.00
2019-04-29T13:17:34.552Z,12.10
2019-04-29T13:27:40.380Z,12.00
2019-04-29T13:37:46.199Z,12.00
2019-04-29T13:47:53.811Z,12.00
2019-04-29T13:57:59.777Z,12.00
2019-04-29T14:08:05.632Z,12.00
2019-04-29T14:18:15.238Z,11.90
2019-04-29T14:28:20.851Z,12.00
2019-04-29T14:38:26.349Z,12.00
2019-04-29T14:48:42.571Z,11.90
2019-04-29T14:58:43.751Z,11.90
2019-04-29T15:08:50.937Z,11.90
2019-04-29T15:18:58.117Z,11.90
2019-04-29T15:29:03.817Z,11.70
2019-04-29T15:39:11.551Z,11.70
2019-04-29T15:49:20.180Z,11.80
2019-04-29T15:59:24.103Z,11.80
2019-04-29T16:19:38.492Z,11.60
2019-04-29T16:29:46.079Z,11.60
2019-04-29T16:39:52.831Z,11.60
2019-04-29T16:50:04.591Z,11.50
2019-04-29T17:00:14.751Z,11.50
2019-04-29T17:10:33.844Z,11.60
2019-04-29T17:20:46.325Z,11.40
2019-04-29T17:31:13.012Z,11.40
2019-04-29T17:35:15.560Z,11.80
2019-04-29T17:41:19.252Z,11.30
2019-04-29T17:51:36.183Z,11.30
2019-04-29T18:02:08.562Z,11.30
2019-04-29T18:12:24.917Z,11.30
2019-04-29T18:22:34.796Z,11.20
2019-04-29T18:32:42.209Z,11.20
2019-04-29T18:42:48.672Z,11.20
2019-04-29T18:52:56.048Z,11.10
2019-04-29T19:03:02.164Z,11.10
2019-04-29T19:13:12.728Z,11.10
2019-04-29T19:23:22.166Z,11.10
2019-04-29T19:33:25.200Z,11.00
2019-04-29T19:43:55.144Z,11.00
2019-04-29T19:54:02.738Z,11.10
2019-04-29T20:04:15.876Z,11.20
2019-04-29T20:14:27.871Z,11.20
2019-04-29T20:24:29.184Z,11.20
2019-04-29T20:34:36.098Z,11.00
2019-04-29T20:44:47.635Z,11.10
2019-04-29T20:54:57.504Z,11.00
2019-04-29T21:04:58.279Z,11.00
2019-04-29T21:15:18.078Z,11.10
2019-04-29T21:25:24.802Z,11.00
2019-04-29T21:46:06.558Z,11.00
2019-04-29T21:56:12.315Z,10.90
2019-04-29T22:06:18.017Z,11.00
2019-04-29T22:16:25.128Z,11.00
2019-04-29T22:26:31.037Z,11.00
2019-04-29T22:36:36.718Z,10.90
2019-04-29T22:46:44.746Z,11.00
2019-04-29T22:56:53.697Z,11.50
2019-04-29T23:06:56.684Z,10.90
2019-04-29T23:17:06.160Z,11.00
2019-04-29T23:27:11.600Z,10.90
2019-04-29T23:37:19.519Z,10.90
2019-04-29T23:47:25.667Z,10.80
2019-04-29T23:57:41.738Z,10.80
